sensor_id;sensor_type;location;lat;lon;timestamp;pressure;altitude;pressure_sealevel;temperature;humidity
42431;BME280;71905;47.466;19.024;2023-09-12T00:01:25;100011.66;;;20.82;76.37
42431;BME280;71905;47.466;19.024;2023-09-12T00:03:53;100003.38;;;20.85;75.95
42431;BME280;71905;47.466;19.024;2023-09-12T00:06:22;100010.31;;;20.76;76.62
42431;BME280;71905;47.466;19.024;2023-09-12T00:08:51;100006.66;;;20.77;77.40
42431;BME280;71905;47.466;19.024;2023-09-12T00:11:19;100012.63;;;20.81;77.06
42431;BME280;71905;47.466;19.024;2023-09-12T00:13:48;100009.72;;;20.84;76.65
42431;BME280;71905;47.466;19.024;2023-09-12T00:16:17;100012.75;;;20.79;76.57
42431;BME280;71905;47.466;19.024;2023-09-12T00:18:45;100018.75;;;20.72;75.97
42431;BME280;71905;47.466;19.024;2023-09-12T00:21:13;100016.16;;;20.70;75.91
42431;BME280;71905;47.466;19.024;2023-09-12T00:23:41;100015.69;;;20.76;75.68
42431;BME280;71905;47.466;19.024;2023-09-12T00:26:10;100009.94;;;20.70;76.30
42431;BME280;71905;47.466;19.024;2023-09-12T00:28:38;100016.66;;;20.64;76.36
42431;BME280;71905;47.466;19.024;2023-09-12T00:31:08;100016.66;;;20.64;76.28
42431;BME280;71905;47.466;19.024;2023-09-12T00:33:37;100014.84;;;20.53;76.57
42431;BME280;71905;47.466;19.024;2023-09-12T00:36:05;100015.47;;;20.46;77.06
42431;BME280;71905;47.466;19.024;2023-09-12T00:38:33;100014.06;;;20.40;77.99
42431;BME280;71905;47.466;19.024;2023-09-12T00:41:01;100009.69;;;20.39;77.69
42431;BME280;71905;47.466;19.024;2023-09-12T00:43:29;100015.03;;;20.39;78.05
42431;BME280;71905;47.466;19.024;2023-09-12T00:45:57;100016.00;;;20.27;78.54
42431;BME280;71905;47.466;19.024;2023-09-12T00:48:27;100013.06;;;20.30;78.46
42431;BME280;71905;47.466;19.024;2023-09-12T00:50:56;100011.38;;;20.29;78.46
42431;BME280;71905;47.466;19.024;2023-09-12T00:53:24;100010.75;;;20.25;78.76
42431;BME280;71905;47.466;19.024;2023-09-12T00:55:56;100013.69;;;20.22;78.80
42431;BME280;71905;47.466;19.024;2023-09-12T00:58:25;100008.53;;;20.19;79.22
42431;BME280;71905;47.466;19.024;2023-09-12T01:00:55;100010.16;;;20.22;79.18
42431;BME280;71905;47.466;19.024;2023-09-12T01:03:24;100012.97;;;20.20;79.49
42431;BME280;71905;47.466;19.024;2023-09-12T01:05:57;100012.44;;;20.15;79.90
42431;BME280;71905;47.466;19.024;2023-09-12T01:08:25;100011.72;;;20.13;79.79
42431;BME280;71905;47.466;19.024;2023-09-12T01:10:55;100012.19;;;20.07;79.02
42431;BME280;71905;47.466;19.024;2023-09-12T01:13:24;100016.22;;;20.13;78.28
42431;BME280;71905;47.466;19.024;2023-09-12T01:15:53;100001.44;;;20.07;78.90
42431;BME280;71905;47.466;19.024;2023-09-12T01:18:21;100005.09;;;20.06;78.41
42431;BME280;71905;47.466;19.024;2023-09-12T01:21:10;100009.00;;;20.02;78.75
42431;BME280;71905;47.466;19.024;2023-09-12T01:23:54;100003.03;;;19.98;79.06
42431;BME280;71905;47.466;19.024;2023-09-12T01:26:41;100003.88;;;19.99;79.08
42431;BME280;71905;47.466;19.024;2023-09-12T01:29:17;100008.47;;;19.86;80.34
42431;BME280;71905;47.466;19.024;2023-09-12T01:31:47;100001.66;;;19.93;79.59
42431;BME280;71905;47.466;19.024;2023-09-12T01:34:17;99998.75;;;19.85;80.13
42431;BME280;71905;47.466;19.024;2023-09-12T01:36:45;100010.03;;;19.77;80.89
42431;BME280;71905;47.466;19.024;2023-09-12T01:39:13;99998.59;;;19.75;81.65
42431;BME280;71905;47.466;19.024;2023-09-12T01:41:43;100005.28;;;19.81;81.35
42431;BME280;71905;47.466;19.024;2023-09-12T01:44:15;99999.31;;;19.77;81.74
42431;BME280;71905;47.466;19.024;2023-09-12T01:46:44;99997.25;;;19.81;81.41
42431;BME280;71905;47.466;19.024;2023-09-12T01:49:15;100002.34;;;19.73;81.97
42431;BME280;71905;47.466;19.024;2023-09-12T01:51:46;100003.09;;;19.75;81.71
42431;BME280;71905;47.466;19.024;2023-09-12T01:54:15;100001.38;;;19.74;81.50
42431;BME280;71905;47.466;19.024;2023-09-12T01:56:44;99999.44;;;19.76;81.56
42431;BME280;71905;47.466;19.024;2023-09-12T01:59:13;100004.78;;;19.76;81.56
42431;BME280;71905;47.466;19.024;2023-09-12T02:01:42;100006.50;;;19.77;81.34
42431;BME280;71905;47.466;19.024;2023-09-12T02:04:10;100007.72;;;19.73;81.57
42431;BME280;71905;47.466;19.024;2023-09-12T02:06:38;100006.34;;;19.67;80.89
42431;BME280;71905;47.466;19.024;2023-09-12T02:09:07;100015.94;;;19.58;80.82
42431;BME280;71905;47.466;19.024;2023-09-12T02:11:35;100006.19;;;19.57;81.10
42431;BME280;71905;47.466;19.024;2023-09-12T02:14:02;100020.25;;;19.48;81.39
42431;BME280;71905;47.466;19.024;2023-09-12T02:16:31;100021.09;;;19.49;81.66
42431;BME280;71905;47.466;19.024;2023-09-12T02:19:00;100026.69;;;19.46;81.72
42431;BME280;71905;47.466;19.024;2023-09-12T02:21:29;100022.84;;;19.37;82.34
42431;BME280;71905;47.466;19.024;2023-09-12T02:23:58;100018.59;;;19.34;82.01
42431;BME280;71905;47.466;19.024;2023-09-12T02:26:26;100014.94;;;19.35;82.11
42431;BME280;71905;47.466;19.024;2023-09-12T02:28:54;100020.75;;;19.29;82.46
42431;BME280;71905;47.466;19.024;2023-09-12T02:31:23;100017.09;;;19.30;82.58
42431;BME280;71905;47.466;19.024;2023-09-12T02:33:52;100020.22;;;19.24;83.17
42431;BME280;71905;47.466;19.024;2023-09-12T02:36:23;100014.88;;;19.24;83.02
42431;BME280;71905;47.466;19.024;2023-09-12T02:38:51;100007.69;;;19.25;83.24
42431;BME280;71905;47.466;19.024;2023-09-12T02:41:19;100018.22;;;19.15;83.64
42431;BME280;71905;47.466;19.024;2023-09-12T02:43:47;100009.03;;;19.19;83.82
42431;BME280;71905;47.466;19.024;2023-09-12T02:46:15;100009.34;;;19.15;84.21
42431;BME280;71905;47.466;19.024;2023-09-12T02:48:43;100015.31;;;19.18;84.48
42431;BME280;71905;47.466;19.024;2023-09-12T02:51:12;100017.13;;;19.18;84.36
42431;BME280;71905;47.466;19.024;2023-09-12T02:53:41;100010.06;;;19.17;84.35
42431;BME280;71905;47.466;19.024;2023-09-12T02:56:09;100010.31;;;19.14;84.89
42431;BME280;71905;47.466;19.024;2023-09-12T02:58:37;100005.56;;;19.17;84.67
42431;BME280;71905;47.466;19.024;2023-09-12T03:01:06;99995.72;;;19.18;84.28
42431;BME280;71905;47.466;19.024;2023-09-12T03:03:34;100002.41;;;19.12;85.18
42431;BME280;71905;47.466;19.024;2023-09-12T03:06:02;100001.66;;;19.10;85.28
42431;BME280;71905;47.466;19.024;2023-09-12T03:08:30;100003.25;;;19.13;85.11
42431;BME280;71905;47.466;19.024;2023-09-12T03:11:00;100005.06;;;19.12;85.29
42431;BME280;71905;47.466;19.024;2023-09-12T03:13:29;100008.84;;;19.09;85.26
42431;BME280;71905;47.466;19.024;2023-09-12T03:15:57;100003.38;;;19.11;85.04
42431;BME280;71905;47.466;19.024;2023-09-12T03:18:26;100015.16;;;19.08;84.71
42431;BME280;71905;47.466;19.024;2023-09-12T03:20:54;100013.38;;;18.96;84.14
42431;BME280;71905;47.466;19.024;2023-09-12T03:23:22;100021.31;;;18.85;84.31
42431;BME280;71905;47.466;19.024;2023-09-12T03:25:50;100018.66;;;18.85;84.22
42431;BME280;71905;47.466;19.024;2023-09-12T03:28:20;100018.09;;;18.80;84.63
42431;BME280;71905;47.466;19.024;2023-09-12T03:30:48;100023.03;;;18.86;84.68
42431;BME280;71905;47.466;19.024;2023-09-12T03:33:16;100023.44;;;18.80;84.87
42431;BME280;71905;47.466;19.024;2023-09-12T03:35:44;100027.09;;;18.79;85.28
42431;BME280;71905;47.466;19.024;2023-09-12T03:38:12;100024.13;;;18.71;85.81
42431;BME280;71905;47.466;19.024;2023-09-12T03:40:40;100026.59;;;18.74;85.84
42431;BME280;71905;47.466;19.024;2023-09-12T03:43:08;100032.66;;;18.63;86.82
42431;BME280;71905;47.466;19.024;2023-09-12T03:45:38;100027.31;;;18.63;86.82
42431;BME280;71905;47.466;19.024;2023-09-12T03:48:06;100023.91;;;18.61;87.09
42431;BME280;71905;47.466;19.024;2023-09-12T03:50:34;100023.78;;;18.63;86.84
42431;BME280;71905;47.466;19.024;2023-09-12T03:53:04;100027.41;;;18.62;87.40
42431;BME280;71905;47.466;19.024;2023-09-12T03:55:32;100022.41;;;18.57;87.73
42431;BME280;71905;47.466;19.024;2023-09-12T03:58:01;100022.41;;;18.57;87.73
42431;BME280;71905;47.466;19.024;2023-09-12T04:00:29;100023.38;;;18.56;87.73
42431;BME280;71905;47.466;19.024;2023-09-12T04:02:58;100024.00;;;18.60;87.62
42431;BME280;71905;47.466;19.024;2023-09-12T04:05:26;100024.13;;;18.58;87.82
42431;BME280;71905;47.466;19.024;2023-09-12T04:07:54;100027.53;;;18.60;88.24
42431;BME280;71905;47.466;19.024;2023-09-12T04:10:23;100026.16;;;18.67;87.72
42431;BME280;71905;47.466;19.024;2023-09-12T04:12:51;100029.06;;;18.64;87.28
42431;BME280;71905;47.466;19.024;2023-09-12T04:15:19;100032.03;;;18.60;87.42
42431;BME280;71905;47.466;19.024;2023-09-12T04:17:47;100029.69;;;18.55;87.64
42431;BME280;71905;47.466;19.024;2023-09-12T04:20:17;100029.25;;;18.61;87.42
42431;BME280;71905;47.466;19.024;2023-09-12T04:22:46;100031.19;;;18.59;87.40
42431;BME280;71905;47.466;19.024;2023-09-12T04:25:14;100033.00;;;18.59;87.19
42431;BME280;71905;47.466;19.024;2023-09-12T04:27:42;100032.38;;;18.55;86.82
42431;BME280;71905;47.466;19.024;2023-09-12T04:30:11;100029.25;;;18.48;87.25
42431;BME280;71905;47.466;19.024;2023-09-12T04:32:40;100034.81;;;18.45;87.77
42431;BME280;71905;47.466;19.024;2023-09-12T04:35:08;100033.00;;;18.46;87.88
42431;BME280;71905;47.466;19.024;2023-09-12T04:37:38;100042.00;;;18.58;87.49
42431;BME280;71905;47.466;19.024;2023-09-12T04:40:07;100031.91;;;18.61;87.79
42431;BME280;71905;47.466;19.024;2023-09-12T04:42:35;100042.63;;;18.61;87.58
42431;BME280;71905;47.466;19.024;2023-09-12T04:45:04;100045.75;;;18.55;86.18
42431;BME280;71905;47.466;19.024;2023-09-12T04:47:33;100040.19;;;18.45;86.50
42431;BME280;71905;47.466;19.024;2023-09-12T04:50:02;100040.19;;;18.45;86.81
42431;BME280;71905;47.466;19.024;2023-09-12T04:52:30;100050.13;;;18.43;86.59
42431;BME280;71905;47.466;19.024;2023-09-12T04:55:01;100052.34;;;18.49;86.93
42431;BME280;71905;47.466;19.024;2023-09-12T04:57:30;100055.66;;;18.53;86.36
42431;BME280;71905;47.466;19.024;2023-09-12T04:59:59;100060.81;;;18.56;86.59
42431;BME280;71905;47.466;19.024;2023-09-12T05:02:28;100056.22;;;18.58;86.87
42431;BME280;71905;47.466;19.024;2023-09-12T05:04:56;100051.50;;;18.62;86.39
42431;BME280;71905;47.466;19.024;2023-09-12T05:07:25;100063.91;;;18.63;86.30
42431;BME280;71905;47.466;19.024;2023-09-12T05:09:53;100061.22;;;18.63;86.54
42431;BME280;71905;47.466;19.024;2023-09-12T05:12:22;100062.97;;;18.64;86.68
42431;BME280;71905;47.466;19.024;2023-09-12T05:14:50;100057.31;;;18.68;86.72
42431;BME280;71905;47.466;19.024;2023-09-12T05:17:18;100058.06;;;18.70;86.74
42431;BME280;71905;47.466;19.024;2023-09-12T05:19:47;100053.69;;;18.69;86.39
42431;BME280;71905;47.466;19.024;2023-09-12T05:22:15;100058.19;;;18.69;86.49
42431;BME280;71905;47.466;19.024;2023-09-12T05:24:44;100060.50;;;18.73;86.17
42431;BME280;71905;47.466;19.024;2023-09-12T05:27:12;100058.25;;;18.80;86.09
42431;BME280;71905;47.466;19.024;2023-09-12T05:29:42;100055.78;;;18.77;85.84
42431;BME280;71905;47.466;19.024;2023-09-12T05:32:10;100056.53;;;18.79;86.05
42431;BME280;71905;47.466;19.024;2023-09-12T05:34:39;100061.81;;;18.80;85.62
42431;BME280;71905;47.466;19.024;2023-09-12T05:37:07;100060.91;;;18.80;85.99
42431;BME280;71905;47.466;19.024;2023-09-12T05:39:35;100065.22;;;18.83;86.25
42431;BME280;71905;47.466;19.024;2023-09-12T05:42:03;100074.84;;;18.85;85.68
42431;BME280;71905;47.466;19.024;2023-09-12T05:44:32;100072.47;;;18.93;85.46
42431;BME280;71905;47.466;19.024;2023-09-12T05:47:03;100075.66;;;18.98;85.36
42431;BME280;71905;47.466;19.024;2023-09-12T05:49:31;100078.84;;;19.03;85.45
42431;BME280;71905;47.466;19.024;2023-09-12T05:52:03;100080.38;;;19.07;85.15
42431;BME280;71905;47.466;19.024;2023-09-12T05:54:31;100075.66;;;19.11;85.09
42431;BME280;71905;47.466;19.024;2023-09-12T05:56:59;100072.38;;;19.31;84.61
42431;BME280;71905;47.466;19.024;2023-09-12T05:59:28;100077.16;;;19.39;83.96
42431;BME280;71905;47.466;19.024;2023-09-12T06:01:56;100078.56;;;19.45;84.15
42431;BME280;71905;47.466;19.024;2023-09-12T06:04:25;100075.28;;;19.52;84.27
42431;BME280;71905;47.466;19.024;2023-09-12T06:06:53;100075.72;;;19.59;83.03
42431;BME280;71905;47.466;19.024;2023-09-12T06:09:22;100080.00;;;19.61;83.21
42431;BME280;71905;47.466;19.024;2023-09-12T06:11:50;100076.13;;;19.65;83.62
42431;BME280;71905;47.466;19.024;2023-09-12T06:14:18;100085.66;;;19.69;83.78
42431;BME280;71905;47.466;19.024;2023-09-12T06:16:46;100080.81;;;19.75;83.71
42431;BME280;71905;47.466;19.024;2023-09-12T06:19:14;100073.50;;;19.77;83.39
42431;BME280;71905;47.466;19.024;2023-09-12T06:21:44;100082.03;;;19.82;83.21
42431;BME280;71905;47.466;19.024;2023-09-12T06:24:13;100080.72;;;19.87;83.25
42431;BME280;71905;47.466;19.024;2023-09-12T06:26:42;100084.75;;;19.93;83.29
42431;BME280;71905;47.466;19.024;2023-09-12T06:29:11;100082.59;;;19.98;83.15
42431;BME280;71905;47.466;19.024;2023-09-12T06:31:42;100090.16;;;20.04;83.16
42431;BME280;71905;47.466;19.024;2023-09-12T06:34:10;100088.88;;;20.10;82.64
42431;BME280;71905;47.466;19.024;2023-09-12T06:36:38;100090.22;;;20.15;82.02
42431;BME280;71905;47.466;19.024;2023-09-12T06:39:09;100085.25;;;20.22;81.53
42431;BME280;71905;47.466;19.024;2023-09-12T06:41:37;100093.66;;;20.28;81.49
42431;BME280;71905;47.466;19.024;2023-09-12T06:44:05;100089.66;;;20.34;81.88
42431;BME280;71905;47.466;19.024;2023-09-12T06:46:34;100086.50;;;20.40;81.69
42431;BME280;71905;47.466;19.024;2023-09-12T06:49:04;100087.00;;;20.45;81.21
42431;BME280;71905;47.466;19.024;2023-09-12T06:51:33;100088.13;;;20.54;80.59
42431;BME280;71905;47.466;19.024;2023-09-12T06:54:04;100092.78;;;20.63;80.65
42431;BME280;71905;47.466;19.024;2023-09-12T06:56:34;100092.41;;;20.68;80.41
42431;BME280;71905;47.466;19.024;2023-09-12T06:59:04;100091.31;;;20.70;80.24
42431;BME280;71905;47.466;19.024;2023-09-12T07:01:33;100097.06;;;20.77;79.94
42431;BME280;71905;47.466;19.024;2023-09-12T07:04:01;100092.31;;;20.80;79.66
42431;BME280;71905;47.466;19.024;2023-09-12T07:06:29;100095.63;;;20.84;79.45
42431;BME280;71905;47.466;19.024;2023-09-12T07:08:59;100094.13;;;20.91;79.52
42431;BME280;71905;47.466;19.024;2023-09-12T07:11:27;100099.03;;;20.97;79.41
42431;BME280;71905;47.466;19.024;2023-09-12T07:13:57;100095.84;;;21.03;79.01
42431;BME280;71905;47.466;19.024;2023-09-12T07:16:25;100101.59;;;21.10;78.47
42431;BME280;71905;47.466;19.024;2023-09-12T07:18:53;100100.22;;;21.15;78.23
42431;BME280;71905;47.466;19.024;2023-09-12T07:21:21;100099.00;;;21.20;78.04
42431;BME280;71905;47.466;19.024;2023-09-12T07:23:49;100107.47;;;21.26;78.29
42431;BME280;71905;47.466;19.024;2023-09-12T07:26:17;100105.13;;;21.33;77.88
42431;BME280;71905;47.466;19.024;2023-09-12T07:28:45;100108.31;;;21.38;77.93
42431;BME280;71905;47.466;19.024;2023-09-12T07:31:15;100106.69;;;21.47;78.27
42431;BME280;71905;47.466;19.024;2023-09-12T07:33:44;100107.06;;;21.53;77.66
42431;BME280;71905;47.466;19.024;2023-09-12T07:36:13;100108.59;;;21.67;76.62
42431;BME280;71905;47.466;19.024;2023-09-12T07:38:41;100105.78;;;21.68;76.76
42431;BME280;71905;47.466;19.024;2023-09-12T07:41:12;100107.97;;;21.74;76.72
42431;BME280;71905;47.466;19.024;2023-09-12T07:43:40;100105.88;;;21.78;76.58
42431;BME280;71905;47.466;19.024;2023-09-12T07:46:08;100101.56;;;21.87;76.23
42431;BME280;71905;47.466;19.024;2023-09-12T07:48:38;100104.59;;;21.93;76.05
42431;BME280;71905;47.466;19.024;2023-09-12T07:51:12;100105.31;;;22.07;75.69
42431;BME280;71905;47.466;19.024;2023-09-12T07:53:41;100103.59;;;22.06;75.30
42431;BME280;71905;47.466;19.024;2023-09-12T07:56:10;100112.16;;;22.11;75.67
42431;BME280;71905;47.466;19.024;2023-09-12T07:58:38;100105.38;;;22.16;75.73
42431;BME280;71905;47.466;19.024;2023-09-12T08:01:06;100104.84;;;22.22;73.89
42431;BME280;71905;47.466;19.024;2023-09-12T08:03:35;100099.94;;;22.27;72.94
42431;BME280;71905;47.466;19.024;2023-09-12T08:06:05;100096.84;;;22.32;72.70
42431;BME280;71905;47.466;19.024;2023-09-12T08:08:34;100083.97;;;22.36;73.08
42431;BME280;71905;47.466;19.024;2023-09-12T08:11:02;100094.25;;;22.42;73.29
42431;BME280;71905;47.466;19.024;2023-09-12T08:13:31;100093.69;;;22.48;73.41
42431;BME280;71905;47.466;19.024;2023-09-12T08:15:59;100089.38;;;22.56;72.58
42431;BME280;71905;47.466;19.024;2023-09-12T08:18:29;100094.94;;;22.65;71.77
42431;BME280;71905;47.466;19.024;2023-09-12T08:20:58;100102.94;;;22.76;69.25
42431;BME280;71905;47.466;19.024;2023-09-12T08:23:27;100103.13;;;22.84;68.23
42431;BME280;71905;47.466;19.024;2023-09-12T08:25:55;100099.31;;;22.86;67.35
42431;BME280;71905;47.466;19.024;2023-09-12T08:28:23;100101.50;;;22.93;66.52
42431;BME280;71905;47.466;19.024;2023-09-12T08:30:52;100102.25;;;23.04;66.48
42431;BME280;71905;47.466;19.024;2023-09-12T08:33:20;100100.84;;;23.10;65.62
42431;BME280;71905;47.466;19.024;2023-09-12T08:35:52;100109.53;;;23.13;65.20
42431;BME280;71905;47.466;19.024;2023-09-12T08:38:20;100104.56;;;23.18;65.11
42431;BME280;71905;47.466;19.024;2023-09-12T08:40:50;100104.59;;;23.28;65.48
42431;BME280;71905;47.466;19.024;2023-09-12T08:43:19;100099.78;;;23.32;65.81
42431;BME280;71905;47.466;19.024;2023-09-12T08:45:47;100095.28;;;23.42;65.71
42431;BME280;71905;47.466;19.024;2023-09-12T08:48:16;100094.47;;;23.51;65.27
42431;BME280;71905;47.466;19.024;2023-09-12T08:50:50;100090.22;;;23.58;65.14
42431;BME280;71905;47.466;19.024;2023-09-12T08:53:19;100095.06;;;23.64;65.87
42431;BME280;71905;47.466;19.024;2023-09-12T08:55:51;100087.13;;;23.72;65.17
42431;BME280;71905;47.466;19.024;2023-09-12T08:58:20;100094.66;;;23.78;65.74
42431;BME280;71905;47.466;19.024;2023-09-12T09:00:48;100095.38;;;23.90;65.03
42431;BME280;71905;47.466;19.024;2023-09-12T09:03:18;100097.34;;;23.98;64.02
42431;BME280;71905;47.466;19.024;2023-09-12T09:05:48;100093.66;;;24.08;61.51
42431;BME280;71905;47.466;19.024;2023-09-12T09:08:18;100096.38;;;24.18;59.96
42431;BME280;71905;47.466;19.024;2023-09-12T09:10:56;100087.84;;;24.32;59.29
42431;BME280;71905;47.466;19.024;2023-09-12T09:13:24;100080.31;;;24.46;57.70
42431;BME280;71905;47.466;19.024;2023-09-12T09:16:12;100089.63;;;24.61;56.71
42431;BME280;71905;47.466;19.024;2023-09-12T09:18:54;100090.78;;;24.68;55.58
42431;BME280;71905;47.466;19.024;2023-09-12T09:21:24;100084.88;;;24.82;54.60
42431;BME280;71905;47.466;19.024;2023-09-12T09:23:54;100087.75;;;24.81;54.08
42431;BME280;71905;47.466;19.024;2023-09-12T09:26:24;100084.28;;;24.88;55.16
42431;BME280;71905;47.466;19.024;2023-09-12T09:29:10;100076.28;;;25.06;54.17
42431;BME280;71905;47.466;19.024;2023-09-12T09:31:42;100083.41;;;25.07;54.35
42431;BME280;71905;47.466;19.024;2023-09-12T09:34:12;100085.63;;;25.12;55.21
42431;BME280;71905;47.466;19.024;2023-09-12T09:36:43;100086.94;;;25.35;51.81
42431;BME280;71905;47.466;19.024;2023-09-12T09:39:12;100081.53;;;25.35;51.62
42431;BME280;71905;47.466;19.024;2023-09-12T09:41:42;100087.78;;;25.36;52.46
42431;BME280;71905;47.466;19.024;2023-09-12T09:44:10;100088.91;;;25.43;51.51
42431;BME280;71905;47.466;19.024;2023-09-12T09:46:38;100087.19;;;25.42;50.98
42431;BME280;71905;47.466;19.024;2023-09-12T09:49:10;100081.47;;;25.45;51.46
42431;BME280;71905;47.466;19.024;2023-09-12T09:51:40;100085.72;;;25.47;50.72
42431;BME280;71905;47.466;19.024;2023-09-12T09:54:10;100077.59;;;25.75;48.71
42431;BME280;71905;47.466;19.024;2023-09-12T09:56:46;100079.84;;;25.79;49.00
42431;BME280;71905;47.466;19.024;2023-09-12T09:59:15;100078.22;;;25.87;48.50
42431;BME280;71905;47.466;19.024;2023-09-12T10:01:44;100072.31;;;25.91;48.26
42431;BME280;71905;47.466;19.024;2023-09-12T10:04:13;100081.06;;;26.21;46.84
42431;BME280;71905;47.466;19.024;2023-09-12T10:06:44;100079.97;;;26.14;47.04
42431;BME280;71905;47.466;19.024;2023-09-12T10:09:13;100079.91;;;26.23;47.95
42431;BME280;71905;47.466;19.024;2023-09-12T10:11:43;100072.38;;;26.35;46.04
42431;BME280;71905;47.466;19.024;2023-09-12T10:14:15;100071.22;;;26.37;46.22
42431;BME280;71905;47.466;19.024;2023-09-12T10:16:47;100073.53;;;26.50;45.79
42431;BME280;71905;47.466;19.024;2023-09-12T10:19:18;100066.88;;;26.71;43.68
42431;BME280;71905;47.466;19.024;2023-09-12T10:21:49;100071.88;;;26.91;42.69
42431;BME280;71905;47.466;19.024;2023-09-12T10:24:19;100076.78;;;27.14;41.72
42431;BME280;71905;47.466;19.024;2023-09-12T10:26:49;100075.13;;;27.21;42.63
42431;BME280;71905;47.466;19.024;2023-09-12T10:29:19;100068.56;;;27.32;42.45
42431;BME280;71905;47.466;19.024;2023-09-12T10:31:47;100065.63;;;27.25;42.88
42431;BME280;71905;47.466;19.024;2023-09-12T10:34:16;100061.81;;;27.52;40.50
42431;BME280;71905;47.466;19.024;2023-09-12T10:36:45;100069.28;;;27.50;40.79
42431;BME280;71905;47.466;19.024;2023-09-12T10:39:14;100058.47;;;27.66;40.24
42431;BME280;71905;47.466;19.024;2023-09-12T10:41:43;100057.31;;;27.77;40.07
42431;BME280;71905;47.466;19.024;2023-09-12T10:44:15;100052.06;;;27.75;40.52
42431;BME280;71905;47.466;19.024;2023-09-12T10:46:45;100047.81;;;27.81;40.25
42431;BME280;71905;47.466;19.024;2023-09-12T10:49:16;100047.66;;;27.82;40.77
42431;BME280;71905;47.466;19.024;2023-09-12T10:51:47;100047.50;;;27.84;40.78
42431;BME280;71905;47.466;19.024;2023-09-12T10:54:25;100054.28;;;28.04;39.20
42431;BME280;71905;47.466;19.024;2023-09-12T10:57:03;100048.69;;;28.22;38.82
42431;BME280;71905;47.466;19.024;2023-09-12T10:59:32;100046.47;;;28.26;38.40
42431;BME280;71905;47.466;19.024;2023-09-12T11:02:30;100047.84;;;28.30;38.33
42431;BME280;71905;47.466;19.024;2023-09-12T11:05:00;100047.00;;;28.29;37.97
42431;BME280;71905;47.466;19.024;2023-09-12T11:07:33;100049.38;;;28.32;37.80
42431;BME280;71905;47.466;19.024;2023-09-12T11:10:16;100040.84;;;28.52;37.69
42431;BME280;71905;47.466;19.024;2023-09-12T11:12:47;100042.00;;;28.65;37.18
42431;BME280;71905;47.466;19.024;2023-09-12T11:15:16;100037.59;;;28.56;37.94
42431;BME280;71905;47.466;19.024;2023-09-12T11:17:46;100035.72;;;28.73;36.73
42431;BME280;71905;47.466;19.024;2023-09-12T11:20:16;100028.59;;;28.72;36.97
42431;BME280;71905;47.466;19.024;2023-09-12T11:22:45;100030.91;;;28.83;36.39
42431;BME280;71905;47.466;19.024;2023-09-12T11:25:17;100035.47;;;28.99;36.73
42431;BME280;71905;47.466;19.024;2023-09-12T11:28:02;100024.78;;;28.97;36.71
42431;BME280;71905;47.466;19.024;2023-09-12T11:30:32;100023.03;;;29.05;36.30
42431;BME280;71905;47.466;19.024;2023-09-12T11:33:05;100021.44;;;29.18;36.77
42431;BME280;71905;47.466;19.024;2023-09-12T11:35:38;100021.88;;;29.30;36.12
42431;BME280;71905;47.466;19.024;2023-09-12T11:38:10;100029.94;;;29.46;35.32
42431;BME280;71905;47.466;19.024;2023-09-12T11:40:43;100023.50;;;29.70;34.45
42431;BME280;71905;47.466;19.024;2023-09-12T11:43:22;100022.84;;;29.68;34.78
42431;BME280;71905;47.466;19.024;2023-09-12T11:45:51;100014.22;;;29.65;34.65
42431;BME280;71905;47.466;19.024;2023-09-12T11:48:21;100021.22;;;29.59;35.57
42431;BME280;71905;47.466;19.024;2023-09-12T11:50:51;100013.00;;;29.67;34.90
42431;BME280;71905;47.466;19.024;2023-09-12T11:53:21;100004.66;;;29.69;34.41
42431;BME280;71905;47.466;19.024;2023-09-12T11:55:54;100004.16;;;29.65;35.03
42431;BME280;71905;47.466;19.024;2023-09-12T11:58:22;100001.06;;;29.91;33.60
42431;BME280;71905;47.466;19.024;2023-09-12T12:00:53;99999.66;;;29.95;33.68
42431;BME280;71905;47.466;19.024;2023-09-12T12:03:24;100003.84;;;30.06;33.77
42431;BME280;71905;47.466;19.024;2023-09-12T12:05:54;99999.19;;;30.14;33.23
42431;BME280;71905;47.466;19.024;2023-09-12T12:08:23;99997.78;;;30.18;33.66
42431;BME280;71905;47.466;19.024;2023-09-12T12:10:54;99995.00;;;30.27;33.13
42431;BME280;71905;47.466;19.024;2023-09-12T12:13:22;100003.81;;;30.29;33.29
42431;BME280;71905;47.466;19.024;2023-09-12T12:15:51;100001.19;;;30.35;32.50
42431;BME280;71905;47.466;19.024;2023-09-12T12:18:19;99996.69;;;30.28;33.01
42431;BME280;71905;47.466;19.024;2023-09-12T12:20:49;100002.03;;;30.36;33.46
42431;BME280;71905;47.466;19.024;2023-09-12T12:23:17;99998.63;;;30.34;33.17
42431;BME280;71905;47.466;19.024;2023-09-12T12:25:45;99995.53;;;30.22;33.01
42431;BME280;71905;47.466;19.024;2023-09-12T12:28:13;99990.38;;;30.12;33.94
42431;BME280;71905;47.466;19.024;2023-09-12T12:30:44;99987.44;;;30.14;34.12
42431;BME280;71905;47.466;19.024;2023-09-12T12:33:14;99975.22;;;30.10;33.99
42431;BME280;71905;47.466;19.024;2023-09-12T12:36:04;99977.41;;;30.14;33.76
42431;BME280;71905;47.466;19.024;2023-09-12T12:38:36;99985.66;;;30.21;33.05
42431;BME280;71905;47.466;19.024;2023-09-12T12:41:21;99972.16;;;30.28;32.70
42431;BME280;71905;47.466;19.024;2023-09-12T12:43:50;99974.56;;;30.23;32.74
42431;BME280;71905;47.466;19.024;2023-09-12T12:46:20;99974.31;;;30.32;32.50
42431;BME280;71905;47.466;19.024;2023-09-12T12:48:49;99971.78;;;30.45;31.66
42431;BME280;71905;47.466;19.024;2023-09-12T12:51:21;99963.03;;;30.35;32.30
42431;BME280;71905;47.466;19.024;2023-09-12T12:53:51;99972.63;;;30.46;31.53